Terminal Aerodrome Forecast
Issued by NWS

Home | Current Version | Previous Version | Text Only | Print | Product List | Glossary Off
Versions: 1 2 3 4 5 6 7 8 9 10 11 12 13 14

000
FTUS45 KGGW 210255 AAA
TAFGDV
TAF AMD
KGDV 210255Z 2103/2124 28011KT P6SM SCT150
     FM210345 29030G40KT P6SM SCT140
     FM210530 29020G30KT P6SM SCT140
     FM210900 26016G24KT P6SM FEW150=

USA.gov is the U.S. government's official web portal to all federal, state and local government web resources and services.